Latest Weather Observations for Parawa West

IDS60901

Issued at 1:35 pm CST Monday 22 September 2014 (issued every 10 minutes, with the page automatically refreshed every 10 minutes)

About weather observations | Map of Adelaide area stations | Latest observations for Adelaide area | Other Formats
Station Details ID: 023875 Name: SECOND VALLEY FOREST AWS Lat: -35.57 Lon: 138.29 Height: 341.0 m
Data from the previous 72 hours. | See also: Recent months at Parawa West
Date/Time
CST
Tmp

°C
App
Tmp
°C
Dew
Point
°C
Rel
Hum
%
Delta-T

°C
Wind Press
QNH
hPa
Press
MSL
hPa
Rain
since
9 am
mm
Dir
 
Spd
km/h
Gust
km/h
Spd
kts
Gust
kts
22/01:30pm 20.2 16.5 0.1 26 9.0 NNW 9 20 5 11 1022.9 1023.0 0.0
22/01:00pm 19.8 15.9 -1.3 24 9.2 NNW 9 22 5 12 1022.9 1023.0 0.0
22/12:30pm 19.5 15.9 0.5 28 8.6 NNW 9 17 5 9 1023.0 1023.1 0.0
22/12:00pm 19.2 15.8 2.1 32 7.9 WNW 9 19 5 10 1023.9 1023.9 0.0
22/11:30am 18.5 15.0 1.1 31 7.9 NNW 9 24 5 13 1024.1 1024.2 0.0
22/11:00am 18.6 15.0 0.7 30 8.1 NNW 9 24 5 13 1024.4 1024.5 0.0
22/10:30am 18.3 15.0 2.2 34 7.4 NE 9 22 5 12 1024.7 1024.8 0.0
22/10:00am 17.8 14.9 2.5 36 7.1 NNE 7 17 4 9 1025.0 1025.1 0.0
22/09:30am 17.3 14.6 2.5 37 6.8 NNW 6 13 3 7 1025.4 1025.5 0.0
22/09:00am 16.8 14.1 2.8 39 6.5 E 6 15 3 8 1025.7 1025.8 0.0
22/08:30am 15.8 13.1 2.9 42 5.9 NNW 6 13 3 7 1025.6 1025.7 0.0
22/08:00am 14.6 12.3 2.8 45 5.4 N 4 9 2 5 1025.8 1025.9 0.0
22/07:30am 12.9 10.9 2.5 49 4.6 WSW 2 6 1 3 1025.7 1025.8 0.0
22/07:00am 11.4 8.8 1.1 49 4.4 SSW 4 7 2 4 1025.6 1025.7 0.0
22/06:30am 10.9 8.1 -0.2 46 4.5 S 4 6 2 3 1025.5 1025.6 0.0
22/06:00am 10.8 8.1 0.0 47 4.4 N 4 9 2 5 1025.4 1025.5 0.0
22/05:30am 10.1 7.8 0.4 51 4.0 NNW 2 6 1 3 1025.3 1025.4 0.0
22/05:00am 9.5 7.2 0.4 53 3.7 NE 2 9 1 5 1025.0 1025.1 0.0
22/04:30am 10.1 7.0 1.2 54 3.7 NE 7 13 4 7 1024.9 1025.0 0.0
22/04:00am 11.4 6.8 1.4 50 4.3 NE 15 19 8 10 1024.9 1025.0 0.0
22/03:30am 10.0 6.3 2.1 58 3.4 NE 11 15 6 8 1025.1 1025.2 0.0
22/03:00am 10.4 7.1 2.7 59 3.4 NE 9 15 5 8 1025.5 1025.6 0.0
22/02:30am 11.1 7.1 2.9 57 3.6 NE 13 17 7 9 1025.5 1025.6 0.0
22/02:00am 11.7 7.0 3.2 56 3.8 NE 17 22 9 12 1025.7 1025.8 0.0
22/01:30am 12.0 7.4 3.5 56 3.8 NE 17 24 9 13 1026.1 1026.2 0.0
22/01:00am 12.1 7.5 3.9 57 3.7 NE 17 22 9 12 1026.6 1026.7 0.0
22/12:30am 12.1 7.2 3.9 57 3.7 ENE 19 22 10 12 1026.7 1026.8 0.0
22/12:00am 12.1 7.3 4.6 60 3.5 ENE 19 24 10 13 1026.7 1026.8 0.0
 
Date/Time
CST
Tmp

°C
App
Tmp
°C
Dew
Point
°C
Rel
Hum
%
Delta-T

°C
Wind Press
QNH
hPa
Press
MSL
hPa
Rain
since
9 am
mm
Dir
 
Spd
km/h
Gust
km/h
Spd
kts
Gust
kts
21/11:30pm 12.3 7.9 5.0 61 3.4 ENE 17 20 9 11 1026.9 1027.0 0.0
21/11:00pm 11.8 7.4 5.0 63 3.2 ENE 17 20 9 11 1026.9 1027.0 0.0
21/10:30pm 12.4 7.5 4.1 57 3.8 ENE 19 22 10 12 1026.9 1027.0 0.0
21/10:00pm 11.8 6.9 4.1 59 3.5 ENE 19 20 10 11 1027.0 1027.1 0.0
21/09:30pm 12.0 7.3 3.3 55 3.9 ENE 17 22 9 12 1027.1 1027.2 0.0
21/09:00pm 10.7 6.8 3.3 60 3.3 E 13 15 7 8 1027.5 1027.6 0.0
21/08:30pm 11.5 8.1 2.0 52 4.1 E 9 13 5 7 1027.8 1027.9 0.0
21/08:00pm 11.8 8.5 2.3 52 4.2 E 9 11 5 6 1027.8 1027.9 0.0
21/07:30pm 11.9 8.2 2.6 53 4.1 ESE 11 13 6 7 1027.8 1027.9 0.0
21/07:00pm 11.8 7.9 3.6 57 3.7 ESE 13 15 7 8 1027.6 1027.7 0.0
21/06:30pm 12.7 9.4 4.4 57 3.8 ESE 11 15 6 8 1027.4 1027.5 0.0
21/06:00pm 14.2 10.9 4.8 53 4.4 ESE 11 13 6 7 1027.3 1027.4 0.0
21/05:30pm 15.2 12.1 5.4 52 4.7 SE 11 15 6 8 1027.4 1027.5 0.0
21/05:00pm 16.3 12.7 5.0 47 5.5 SE 13 19 7 10 1027.2 1027.3 0.0
21/04:30pm 17.3 13.6 4.6 43 6.1 E 13 17 7 9 1027.1 1027.2 0.0
21/04:00pm 17.9 15.0 6.4 47 5.8 ESE 11 15 6 8 1027.2 1027.3 0.0
21/03:30pm 17.6 15.2 8.5 55 4.7 S 11 15 6 8 1027.1 1027.2 0.0
21/03:00pm 17.6 14.6 7.9 53 5.0 S 13 17 7 9 1027.4 1027.5 0.0
21/02:30pm 17.9 15.2 9.0 56 4.7 SSE 13 17 7 9 1027.5 1027.6 0.0
21/02:00pm 18.2 16.2 10.1 59 4.4 SSE 11 15 6 8 1027.5 1027.6 0.0
21/01:30pm 18.4 16.8 10.3 59 4.4 SSE 9 17 5 9 1027.8 1027.9 0.0
21/01:00pm 18.6 17.1 6.8 46 6.0 E 4 11 2 6 1028.3 1028.4 0.0
21/12:30pm 17.6 15.8 5.5 45 5.9 N 4 7 2 4 1029.0 1029.2 0.0
21/12:00pm 17.4 14.9 5.0 44 6.0 WNW 7 13 4 7 1029.7 1029.8 0.0
21/11:30am 17.3 14.3 6.2 48 5.5 WNW 11 17 6 9 1029.9 1030.0 0.0
21/11:00am 17.5 15.3 5.1 44 6.1 N 6 15 3 8 1030.0 1030.1 0.0
21/10:30am 17.6 15.7 2.8 37 6.9 N 2 6 1 3 1030.2 1030.3 0.0
21/10:00am 17.0 14.9 1.4 35 7.0 WNW 2 7 1 4 1030.4 1030.5 0.0
21/09:30am 16.5 14.3 3.2 41 6.2 N 4 7 2 4 1030.5 1030.6 0.0
21/09:00am 15.3 13.2 4.1 47 5.2 N 4 6 2 3 1030.5 1030.6 0.0
21/08:30am 14.7 12.3 4.4 50 4.8 NNE 6 9 3 5 1030.1 1030.2 0.0
21/08:00am 13.7 11.4 4.6 54 4.3 NNE 6 9 3 5 1030.0 1030.1 0.0
21/07:30am 12.1 9.5 3.1 54 4.0 NNE 6 11 3 6 1029.8 1029.9 0.0
21/07:00am 10.9 8.1 3.0 58 3.5 NNE 7 13 4 7 1029.4 1029.6 0.0
21/06:30am 10.2 7.3 2.6 59 3.3 NNE 7 11 4 6 1029.0 1029.2 0.0
21/06:00am 10.4 7.5 2.7 59 3.3 NNE 7 11 4 6 1028.9 1029.1 0.0
21/05:30am 10.5 6.9 2.8 59 3.4 NE 11 17 6 9 1028.6 1028.7 0.0
21/05:00am 10.7 6.7 2.8 58 3.5 NE 13 19 7 10 1028.1 1028.2 0.0
21/04:30am 10.9 6.5 2.7 57 3.6 NE 15 20 8 11 1028.0 1028.1 0.0
21/04:00am 10.8 6.1 2.9 58 3.5 NE 17 20 9 11 1027.7 1027.8 0.0
21/03:30am 10.6 5.4 3.4 61 3.2 ENE 20 26 11 14 1027.5 1027.6 0.0
21/03:00am 10.6 4.6 3.6 62 3.1 ENE 24 33 13 18 1027.4 1027.5 0.0
21/02:30am 10.4 5.2 3.4 62 3.1 NE 20 32 11 17 1027.6 1027.7 0.0
21/02:00am 10.3 5.2 4.2 66 2.8 ENE 20 30 11 16 1027.6 1027.7 0.0
21/01:30am 10.6 5.2 4.7 67 2.7 ENE 22 30 12 16 1028.0 1028.1 0.0
21/01:00am 10.4 5.1 5.0 69 2.5 ENE 22 30 12 16 1028.2 1028.3 0.0
21/12:30am 10.6 4.9 4.9 68 2.6 ENE 24 32 13 17 1028.2 1028.3 0.0
21/12:00am 10.3 4.8 5.7 73 2.1 E 24 32 13 17 1028.1 1028.2 0.0
 
Date/Time
CST
Tmp

°C
App
Tmp
°C
Dew
Point
°C
Rel
Hum
%
Delta-T

°C
Wind Press
QNH
hPa
Press
MSL
hPa
Rain
since
9 am
mm
Dir
 
Spd
km/h
Gust
km/h
Spd
kts
Gust
kts
20/11:30pm 10.4 4.9 5.8 73 2.1 E 24 32 13 17 1028.0 1028.1 0.0
20/11:00pm 10.4 5.5 7.1 80 1.6 E 22 30 12 16 1028.0 1028.1 0.0
20/10:30pm 10.7 5.6 7.6 81 1.5 E 24 32 13 17 1028.1 1028.2 0.0
20/10:00pm 10.6 5.9 7.7 82 1.4 E 22 30 12 16 1028.3 1028.4 0.0
20/09:30pm 10.6 5.4 7.1 79 1.7 E 24 28 13 15 1028.3 1028.4 0.0
20/09:00pm 10.6 5.2 6.2 74 2.1 E 24 32 13 17 1028.2 1028.3 0.0
20/08:30pm 10.5 5.5 6.3 75 2.0 E 22 30 12 16 1028.1 1028.2 0.0
20/08:00pm 10.7 5.4 7.0 78 1.8 E 24 30 13 16 1027.9 1028.0 0.0
20/07:30pm 10.7 6.1 6.6 76 2.0 ESE 20 26 11 14 1028.1 1028.2 0.0
20/07:00pm 10.8 6.4 6.6 75 2.0 ESE 19 24 10 13 1027.7 1027.8 0.0
20/06:30pm 11.0 6.7 6.9 76 2.0 ESE 19 24 10 13 1027.3 1027.4 0.0
20/06:00pm 11.9 8.4 7.2 73 2.3 SE 15 22 8 12 1027.0 1027.1 0.0
20/05:30pm 13.6 9.3 5.3 57 3.9 ESE 17 24 9 13 1026.6 1026.7 0.0
20/05:00pm 14.6 9.8 4.6 51 4.7 ESE 19 22 10 12 1026.1 1026.2 0.0
20/04:30pm 15.3 11.6 6.1 54 4.5 E 15 20 8 11 1025.9 1026.0 0.0
20/04:00pm 15.6 11.5 6.3 54 4.6 ESE 17 22 9 12 1025.6 1025.7 0.0
20/03:30pm 16.1 11.9 5.7 50 5.1 ESE 17 24 9 13 1025.5 1025.6 0.0
20/03:00pm 16.1 11.3 5.7 50 5.1 SE 20 26 11 14 1025.5 1025.6 0.0
20/02:30pm 16.8 12.8 6.6 51 5.1 ESE 17 28 9 15 1025.4 1025.5 0.0
20/02:00pm 16.9 13.2 6.4 50 5.2 ESE 15 20 8 11 1025.3 1025.4 0.0
20/01:30pm 16.6 12.9 6.1 50 5.2 E 15 22 8 12 1025.3 1025.4 0.0
20/01:00pm 17.0 14.6 5.3 46 5.7 ENE 7 19 4 10 1025.6 1025.7 0.0
20/12:30pm 16.7 13.4 4.4 44 5.9 ENE 11 22 6 12 1025.7 1025.8 0.0
20/12:00pm 16.8 13.9 4.8 45 5.8 ENE 9 15 5 8 1026.1 1026.2 0.0
20/11:30am 16.2 12.3 3.6 43 5.9 ENE 13 19 7 10 1026.2 1026.3 0.0
20/11:00am 16.4 13.7 5.4 48 5.4 ENE 9 15 5 8 1026.4 1026.6 0.0
20/10:30am 15.7 13.0 3.8 45 5.6 ENE 7 11 4 6 1026.7 1026.8 0.0
20/10:00am 15.2 12.8 5.1 51 4.9 ENE 7 11 4 6 1027.1 1027.2 0.0
20/09:30am 14.5 12.0 4.8 52 4.6 ENE 7 9 4 5 1027.0 1027.1 0.0
20/09:00am 13.7 11.0 3.8 51 4.5 NE 7 13 4 7 1026.7 1026.8 0.0
20/08:30am 12.6 9.5 3.8 55 4.0 NE 9 15 5 8 1026.3 1026.4 0.0
20/08:00am 11.6 8.9 3.6 58 3.6 NNE 7 15 4 8 1026.1 1026.2 0.0
20/07:30am 10.6 6.6 2.9 59 3.4 NE 13 20 7 11 1025.6 1025.7 0.0
20/07:00am 9.7 4.8 2.3 60 3.2 NE 17 28 9 15 1025.2 1025.3 0.0
20/06:30am 9.1 3.9 2.2 62 2.9 NE 19 26 10 14 1024.6 1024.7 0.0
20/06:00am 8.9 2.7 2.3 63 2.8 ENE 24 30 13 16 1024.5 1024.6 0.0
20/05:30am 8.6 2.4 2.4 65 2.6 ENE 24 32 13 17 1024.1 1024.2 0.0
20/05:00am 8.6 2.5 2.6 66 2.6 ENE 24 32 13 17 1023.6 1023.6 0.0
20/04:30am 8.6 2.5 2.6 66 2.6 ENE 24 33 13 18 1023.2 1023.3 0.0
20/04:00am 8.8 2.3 2.8 66 2.6 ENE 26 33 14 18 1023.2 1023.3 0.0
20/03:30am 8.9 2.1 2.9 66 2.6 ENE 28 37 15 20 1023.1 1023.2 0.0
20/03:00am 8.9 2.1 3.3 68 2.4 ENE 28 35 15 19 1023.1 1023.2 0.0
20/02:30am 9.0 1.9 3.4 68 2.5 ENE 30 39 16 21 1023.0 1023.1 0.0
20/02:00am 8.8 2.2 4.0 72 2.1 ENE 28 37 15 20 1023.1 1023.2 0.0
20/01:30am 8.9 2.7 4.3 73 2.1 ENE 26 35 14 19 1023.5 1023.5 0.0
20/01:00am 8.8 3.4 4.4 74 2.0 ENE 22 28 12 15 1023.7 1023.7 0.0
20/12:30am 8.7 3.0 4.7 76 1.8 ENE 24 32 13 17 1023.6 1023.6 0.0
20/12:00am 8.9 3.5 4.7 75 1.9 ENE 22 32 12 17 1023.5 1023.5 0.0
 
Date/Time
CST
Tmp

°C
App
Tmp
°C
Dew
Point
°C
Rel
Hum
%
Delta-T

°C
Wind Press
QNH
hPa
Press
MSL
hPa
Rain
since
9 am
mm
Dir
 
Spd
km/h
Gust
km/h
Spd
kts
Gust
kts
19/11:30pm 8.7 3.4 4.9 77 1.7 E 22 28 12 15 1023.7 1023.7 0.0
19/11:00pm 8.9 4.2 6.0 82 1.4 E 20 26 11 14 1023.9 1023.9 0.0
19/10:30pm 8.8 4.6 7.3 90 0.7 E 19 24 10 13 1024.2 1024.3 0.0
19/10:00pm 8.9 4.6 7.2 89 0.8 E 19 26 10 14 1024.2 1024.3 0.0
19/09:30pm 8.8 5.0 7.4 91 0.7 E 17 26 9 14 1024.3 1024.4 0.0
19/09:00pm 8.9 5.1 7.5 91 0.7 E 17 24 9 13 1024.4 1024.5 0.0
19/08:30pm 8.8 5.3 7.3 90 0.7 E 15 20 8 11 1024.4 1024.5 0.0
19/08:00pm 8.7 5.2 7.3 91 0.7 ESE 15 20 8 11 1024.4 1024.5 0.0
19/07:30pm 8.5 5.3 7.0 90 0.7 ESE 13 19 7 10 1024.2 1024.3 0.0
19/07:00pm 8.7 5.2 7.3 91 0.7 SE 15 19 8 10 1024.1 1024.2 0.0
19/06:30pm 9.0 5.6 7.5 90 0.7 SE 15 19 8 10 1024.0 1024.1 0.0
19/06:00pm 9.5 6.1 7.6 88 0.9 SE 15 19 8 10 1023.8 1023.8 0.0
19/05:30pm 10.3 6.9 7.7 84 1.3 SE 15 19 8 10 1023.6 1023.6 0.0
19/05:00pm 11.1 7.4 7.8 80 1.6 SSE 17 20 9 11 1023.6 1023.6 0.0
19/04:30pm 12.0 9.5 8.1 77 1.9 SE 11 19 6 10 1023.3 1023.4 0.0
19/04:00pm 12.3 9.7 7.6 73 2.3 ESE 11 15 6 8 1023.2 1023.3 0.0
19/03:30pm 13.3 9.9 7.5 68 2.9 E 15 22 8 12 1023.3 1023.4 0.0
19/03:00pm 14.0 11.5 8.4 69 2.8 E 11 15 6 8 1023.5 1023.5 0.0
19/02:30pm 14.4 11.9 4.7 52 4.6 NW 7 17 4 9 1023.7 1023.7 0.0
19/02:00pm 13.7 11.1 4.3 53 4.4 W 7 15 4 8 1023.8 1023.8 0.0

Latest Capital City Observations: Canberra | Sydney | Melbourne | Brisbane | Adelaide | Perth | Hobart | Darwin

Other Formats:

Comma delimited format used in spreadsheet applications
http://www.bom.gov.au/fwo/IDS60901/IDS60901.94811.axf

JavaScript Object Notation format (JSON) in row-major order
http://www.bom.gov.au/fwo/IDS60901/IDS60901.94811.json